sensor_id;sensor_type;location;lat;lon;timestamp;P1;durP1;ratioP1;P2;durP2;ratioP2
26820;SDS011;37186;51.394;5.454;2023-07-20T00:01:24;24.45;;;23.65;;
26820;SDS011;37186;51.394;5.454;2023-07-20T00:04:25;25.45;;;24.65;;
26820;SDS011;37186;51.394;5.454;2023-07-20T00:07:25;25.38;;;24.58;;
26820;SDS011;37186;51.394;5.454;2023-07-20T00:10:26;26.80;;;25.90;;
26820;SDS011;37186;51.394;5.454;2023-07-20T00:13:27;27.58;;;26.67;;
26820;SDS011;37186;51.394;5.454;2023-07-20T00:16:27;27.30;;;26.40;;
26820;SDS011;37186;51.394;5.454;2023-07-20T00:19:28;28.13;;;27.20;;
26820;SDS011;37186;51.394;5.454;2023-07-20T00:22:29;28.17;;;27.25;;
26820;SDS011;37186;51.394;5.454;2023-07-20T00:25:30;28.38;;;27.42;;
26820;SDS011;37186;51.394;5.454;2023-07-20T00:28:30;28.98;;;27.98;;
26820;SDS011;37186;51.394;5.454;2023-07-20T00:31:31;25.77;;;24.92;;
26820;SDS011;37186;51.394;5.454;2023-07-20T00:34:31;26.10;;;25.23;;
26820;SDS011;37186;51.394;5.454;2023-07-20T00:37:32;27.23;;;26.33;;
26820;SDS011;37186;51.394;5.454;2023-07-20T00:40:39;24.85;;;24.05;;
26820;SDS011;37186;51.394;5.454;2023-07-20T00:43:40;24.27;;;23.48;;
26820;SDS011;37186;51.394;5.454;2023-07-20T00:46:41;23.05;;;22.30;;
26820;SDS011;37186;51.394;5.454;2023-07-20T00:49:42;22.30;;;21.60;;
26820;SDS011;37186;51.394;5.454;2023-07-20T00:52:43;20.83;;;20.15;;
26820;SDS011;37186;51.394;5.454;2023-07-20T00:55:44;19.35;;;18.75;;
26820;SDS011;37186;51.394;5.454;2023-07-20T00:58:45;19.77;;;19.17;;
26820;SDS011;37186;51.394;5.454;2023-07-20T01:01:46;19.10;;;18.50;;
26820;SDS011;37186;51.394;5.454;2023-07-20T01:04:46;18.58;;;17.98;;
26820;SDS011;37186;51.394;5.454;2023-07-20T01:11:02;15.65;;;15.15;;
26820;SDS011;37186;51.394;5.454;2023-07-20T01:14:10;14.07;;;13.68;;
26820;SDS011;37186;51.394;5.454;2023-07-20T01:17:12;13.48;;;13.07;;
26820;SDS011;37186;51.394;5.454;2023-07-20T01:20:14;13.45;;;13.05;;
26820;SDS011;37186;51.394;5.454;2023-07-20T01:33:27;11.18;;;10.88;;
26820;SDS011;37186;51.394;5.454;2023-07-20T01:36:34;11.93;;;11.57;;
26820;SDS011;37186;51.394;5.454;2023-07-20T01:39:36;10.80;;;10.50;;
26820;SDS011;37186;51.394;5.454;2023-07-20T01:42:38;11.10;;;10.80;;
26820;SDS011;37186;51.394;5.454;2023-07-20T01:45:44;10.38;;;10.07;;
26820;SDS011;37186;51.394;5.454;2023-07-20T01:48:45;10.40;;;10.10;;
26820;SDS011;37186;51.394;5.454;2023-07-20T01:51:46;9.88;;;9.57;;
26820;SDS011;37186;51.394;5.454;2023-07-20T01:54:46;9.55;;;9.25;;
26820;SDS011;37186;51.394;5.454;2023-07-20T01:57:47;9.68;;;9.38;;
26820;SDS011;37186;51.394;5.454;2023-07-20T02:00:47;8.27;;;8.07;;
26820;SDS011;37186;51.394;5.454;2023-07-20T02:03:48;8.25;;;8.05;;
26820;SDS011;37186;51.394;5.454;2023-07-20T02:06:48;8.95;;;8.68;;
26820;SDS011;37186;51.394;5.454;2023-07-20T02:09:49;6.93;;;6.72;;
26820;SDS011;37186;51.394;5.454;2023-07-20T02:12:50;6.70;;;6.50;;
26820;SDS011;37186;51.394;5.454;2023-07-20T02:15:50;7.22;;;7.03;;
26820;SDS011;37186;51.394;5.454;2023-07-20T02:18:51;6.28;;;6.07;;
26820;SDS011;37186;51.394;5.454;2023-07-20T02:21:52;6.60;;;6.40;;
26820;SDS011;37186;51.394;5.454;2023-07-20T02:24:53;6.68;;;6.47;;
26820;SDS011;37186;51.394;5.454;2023-07-20T02:27:53;6.10;;;5.90;;
26820;SDS011;37186;51.394;5.454;2023-07-20T02:30:56;6.35;;;6.15;;
26820;SDS011;37186;51.394;5.454;2023-07-20T02:33:56;6.43;;;6.22;;
26820;SDS011;37186;51.394;5.454;2023-07-20T02:36:57;6.50;;;6.30;;
26820;SDS011;37186;51.394;5.454;2023-07-20T02:39:58;6.30;;;6.10;;
26820;SDS011;37186;51.394;5.454;2023-07-20T02:43:00;6.60;;;6.40;;
26820;SDS011;37186;51.394;5.454;2023-07-20T02:46:01;6.53;;;6.32;;
26820;SDS011;37186;51.394;5.454;2023-07-20T02:49:01;6.28;;;6.07;;
26820;SDS011;37186;51.394;5.454;2023-07-20T02:52:02;6.57;;;6.38;;
26820;SDS011;37186;51.394;5.454;2023-07-20T02:55:03;6.80;;;6.60;;
26820;SDS011;37186;51.394;5.454;2023-07-20T02:58:03;6.95;;;6.75;;
26820;SDS011;37186;51.394;5.454;2023-07-20T03:01:04;6.72;;;6.53;;
26820;SDS011;37186;51.394;5.454;2023-07-20T03:04:05;6.90;;;6.70;;
26820;SDS011;37186;51.394;5.454;2023-07-20T03:07:05;6.75;;;6.55;;
26820;SDS011;37186;51.394;5.454;2023-07-20T03:10:07;6.97;;;6.78;;
26820;SDS011;37186;51.394;5.454;2023-07-20T03:13:09;6.63;;;6.43;;
26820;SDS011;37186;51.394;5.454;2023-07-20T03:16:10;6.68;;;6.47;;
26820;SDS011;37186;51.394;5.454;2023-07-20T03:19:12;6.82;;;6.63;;
26820;SDS011;37186;51.394;5.454;2023-07-20T03:22:12;6.95;;;6.75;;
26820;SDS011;37186;51.394;5.454;2023-07-20T03:25:13;7.03;;;6.82;;
26820;SDS011;37186;51.394;5.454;2023-07-20T03:28:14;6.75;;;6.55;;
26820;SDS011;37186;51.394;5.454;2023-07-20T03:31:15;6.90;;;6.70;;
26820;SDS011;37186;51.394;5.454;2023-07-20T03:34:16;6.40;;;6.20;;
26820;SDS011;37186;51.394;5.454;2023-07-20T03:37:16;7.18;;;6.97;;
26820;SDS011;37186;51.394;5.454;2023-07-20T03:40:17;7.43;;;7.22;;
26820;SDS011;37186;51.394;5.454;2023-07-20T03:43:18;6.72;;;6.53;;
26820;SDS011;37186;51.394;5.454;2023-07-20T03:46:19;6.53;;;6.32;;
26820;SDS011;37186;51.394;5.454;2023-07-20T03:49:19;6.65;;;6.45;;
26820;SDS011;37186;51.394;5.454;2023-07-20T03:52:20;6.78;;;6.57;;
26820;SDS011;37186;51.394;5.454;2023-07-20T03:55:20;7.18;;;6.97;;
26820;SDS011;37186;51.394;5.454;2023-07-20T03:58:21;6.70;;;6.50;;
26820;SDS011;37186;51.394;5.454;2023-07-20T04:01:21;6.85;;;6.65;;
26820;SDS011;37186;51.394;5.454;2023-07-20T04:04:22;7.10;;;6.90;;
26820;SDS011;37186;51.394;5.454;2023-07-20T04:07:22;6.97;;;6.78;;
26820;SDS011;37186;51.394;5.454;2023-07-20T04:10:23;6.82;;;6.63;;
26820;SDS011;37186;51.394;5.454;2023-07-20T04:13:23;8.30;;;8.10;;
26820;SDS011;37186;51.394;5.454;2023-07-20T04:16:24;8.00;;;7.80;;
26820;SDS011;37186;51.394;5.454;2023-07-20T04:19:26;7.53;;;7.32;;
26820;SDS011;37186;51.394;5.454;2023-07-20T04:22:26;7.65;;;7.45;;
26820;SDS011;37186;51.394;5.454;2023-07-20T04:25:27;8.55;;;8.35;;
26820;SDS011;37186;51.394;5.454;2023-07-20T04:28:27;8.20;;;8.00;;
26820;SDS011;37186;51.394;5.454;2023-07-20T04:31:28;9.55;;;9.25;;
26820;SDS011;37186;51.394;5.454;2023-07-20T04:34:28;8.55;;;8.35;;
26820;SDS011;37186;51.394;5.454;2023-07-20T04:37:29;9.68;;;9.38;;
26820;SDS011;37186;51.394;5.454;2023-07-20T04:40:30;9.18;;;8.90;;
26820;SDS011;37186;51.394;5.454;2023-07-20T04:43:30;9.55;;;9.25;;
26820;SDS011;37186;51.394;5.454;2023-07-20T04:46:31;9.90;;;9.60;;
26820;SDS011;37186;51.394;5.454;2023-07-20T04:49:31;9.98;;;9.68;;
26820;SDS011;37186;51.394;5.454;2023-07-20T04:52:32;10.35;;;10.05;;
26820;SDS011;37186;51.394;5.454;2023-07-20T04:55:32;10.13;;;9.82;;
26820;SDS011;37186;51.394;5.454;2023-07-20T04:58:36;8.35;;;8.15;;
26820;SDS011;37186;51.394;5.454;2023-07-20T05:01:37;9.82;;;9.52;;
26820;SDS011;37186;51.394;5.454;2023-07-20T05:04:37;10.07;;;9.77;;
26820;SDS011;37186;51.394;5.454;2023-07-20T05:07:38;10.18;;;9.88;;
26820;SDS011;37186;51.394;5.454;2023-07-20T05:10:38;10.23;;;9.93;;
26820;SDS011;37186;51.394;5.454;2023-07-20T05:13:40;9.45;;;9.15;;
26820;SDS011;37186;51.394;5.454;2023-07-20T05:16:40;10.23;;;9.93;;
26820;SDS011;37186;51.394;5.454;2023-07-20T05:19:41;11.80;;;11.45;;
26820;SDS011;37186;51.394;5.454;2023-07-20T05:22:42;11.95;;;11.60;;
26820;SDS011;37186;51.394;5.454;2023-07-20T05:25:43;11.10;;;10.80;;
26820;SDS011;37186;51.394;5.454;2023-07-20T05:28:43;12.07;;;11.70;;
26820;SDS011;37186;51.394;5.454;2023-07-20T05:31:44;10.68;;;10.38;;
26820;SDS011;37186;51.394;5.454;2023-07-20T05:34:45;11.32;;;11.02;;
26820;SDS011;37186;51.394;5.454;2023-07-20T05:37:45;11.73;;;11.40;;
26820;SDS011;37186;51.394;5.454;2023-07-20T05:40:46;10.55;;;10.25;;
26820;SDS011;37186;51.394;5.454;2023-07-20T05:43:46;10.10;;;9.80;;
26820;SDS011;37186;51.394;5.454;2023-07-20T05:46:47;10.27;;;9.98;;
26820;SDS011;37186;51.394;5.454;2023-07-20T05:49:48;10.98;;;10.68;;
26820;SDS011;37186;51.394;5.454;2023-07-20T05:52:48;7.80;;;7.60;;
26820;SDS011;37186;51.394;5.454;2023-07-20T05:55:55;8.02;;;7.82;;
26820;SDS011;37186;51.394;5.454;2023-07-20T05:58:55;9.00;;;8.73;;
26820;SDS011;37186;51.394;5.454;2023-07-20T06:01:56;9.85;;;9.55;;
26820;SDS011;37186;51.394;5.454;2023-07-20T06:04:57;8.93;;;8.65;;
26820;SDS011;37186;51.394;5.454;2023-07-20T06:07:57;8.57;;;8.35;;
26820;SDS011;37186;51.394;5.454;2023-07-20T06:11:00;8.63;;;8.40;;
26820;SDS011;37186;51.394;5.454;2023-07-20T06:14:01;9.05;;;8.75;;
26820;SDS011;37186;51.394;5.454;2023-07-20T06:17:01;7.57;;;7.38;;
26820;SDS011;37186;51.394;5.454;2023-07-20T06:20:02;8.20;;;8.00;;
26820;SDS011;37186;51.394;5.454;2023-07-20T06:23:03;7.18;;;6.97;;
26820;SDS011;37186;51.394;5.454;2023-07-20T06:26:05;7.57;;;7.38;;
26820;SDS011;37186;51.394;5.454;2023-07-20T06:29:06;8.80;;;8.55;;
26820;SDS011;37186;51.394;5.454;2023-07-20T06:32:07;8.10;;;7.90;;
26820;SDS011;37186;51.394;5.454;2023-07-20T06:35:08;6.75;;;6.55;;
26820;SDS011;37186;51.394;5.454;2023-07-20T06:38:08;6.35;;;6.15;;
26820;SDS011;37186;51.394;5.454;2023-07-20T06:41:09;6.53;;;6.32;;
26820;SDS011;37186;51.394;5.454;2023-07-20T06:44:09;6.60;;;6.40;;
26820;SDS011;37186;51.394;5.454;2023-07-20T06:47:11;8.18;;;7.97;;
26820;SDS011;37186;51.394;5.454;2023-07-20T06:50:12;7.57;;;7.38;;
26820;SDS011;37186;51.394;5.454;2023-07-20T06:53:13;6.93;;;6.72;;
26820;SDS011;37186;51.394;5.454;2023-07-20T06:56:13;7.00;;;6.80;;
26820;SDS011;37186;51.394;5.454;2023-07-20T06:59:14;6.78;;;6.57;;
26820;SDS011;37186;51.394;5.454;2023-07-20T07:02:14;7.45;;;7.25;;
26820;SDS011;37186;51.394;5.454;2023-07-20T07:05:15;7.30;;;7.10;;
26820;SDS011;37186;51.394;5.454;2023-07-20T07:08:16;6.90;;;6.70;;
26820;SDS011;37186;51.394;5.454;2023-07-20T07:11:16;7.25;;;7.05;;
26820;SDS011;37186;51.394;5.454;2023-07-20T07:14:17;9.48;;;9.18;;
26820;SDS011;37186;51.394;5.454;2023-07-20T07:17:17;8.90;;;8.65;;
26820;SDS011;37186;51.394;5.454;2023-07-20T07:20:18;10.02;;;9.73;;
26820;SDS011;37186;51.394;5.454;2023-07-20T07:23:18;10.30;;;10.00;;
26820;SDS011;37186;51.394;5.454;2023-07-20T07:26:19;10.30;;;10.00;;
26820;SDS011;37186;51.394;5.454;2023-07-20T07:29:21;9.90;;;9.60;;
26820;SDS011;37186;51.394;5.454;2023-07-20T07:32:21;9.98;;;9.68;;
26820;SDS011;37186;51.394;5.454;2023-07-20T07:35:22;8.98;;;8.68;;
26820;SDS011;37186;51.394;5.454;2023-07-20T07:38:23;9.85;;;9.55;;
26820;SDS011;37186;51.394;5.454;2023-07-20T07:41:23;9.77;;;9.48;;
26820;SDS011;37186;51.394;5.454;2023-07-20T07:44:24;10.38;;;10.07;;
26820;SDS011;37186;51.394;5.454;2023-07-20T07:47:24;10.00;;;9.70;;
26820;SDS011;37186;51.394;5.454;2023-07-20T07:50:25;10.93;;;10.63;;
26820;SDS011;37186;51.394;5.454;2023-07-20T07:53:26;10.05;;;9.75;;
26820;SDS011;37186;51.394;5.454;2023-07-20T07:56:27;10.45;;;10.15;;
26820;SDS011;37186;51.394;5.454;2023-07-20T07:59:27;10.50;;;10.20;;
26820;SDS011;37186;51.394;5.454;2023-07-20T08:02:28;10.20;;;9.90;;
26820;SDS011;37186;51.394;5.454;2023-07-20T08:05:28;11.45;;;11.15;;
26820;SDS011;37186;51.394;5.454;2023-07-20T08:08:29;11.20;;;10.90;;
26820;SDS011;37186;51.394;5.454;2023-07-20T08:11:30;12.93;;;12.52;;
26820;SDS011;37186;51.394;5.454;2023-07-20T08:14:33;10.93;;;10.63;;
26820;SDS011;37186;51.394;5.454;2023-07-20T08:17:34;11.90;;;11.55;;
26820;SDS011;37186;51.394;5.454;2023-07-20T08:20:34;11.77;;;11.43;;
26820;SDS011;37186;51.394;5.454;2023-07-20T08:23:35;11.63;;;11.32;;
26820;SDS011;37186;51.394;5.454;2023-07-20T08:26:36;11.95;;;11.60;;
26820;SDS011;37186;51.394;5.454;2023-07-20T08:29:37;13.32;;;12.93;;
26820;SDS011;37186;51.394;5.454;2023-07-20T08:32:37;11.20;;;10.90;;
26820;SDS011;37186;51.394;5.454;2023-07-20T08:35:38;11.00;;;10.70;;
26820;SDS011;37186;51.394;5.454;2023-07-20T08:38:39;8.95;;;8.68;;
26820;SDS011;37186;51.394;5.454;2023-07-20T08:41:39;9.70;;;9.40;;
26820;SDS011;37186;51.394;5.454;2023-07-20T08:44:46;10.10;;;9.80;;
26820;SDS011;37186;51.394;5.454;2023-07-20T08:47:49;10.50;;;10.20;;
26820;SDS011;37186;51.394;5.454;2023-07-20T08:50:51;10.85;;;10.55;;
26820;SDS011;37186;51.394;5.454;2023-07-20T08:53:55;9.70;;;9.40;;
26820;SDS011;37186;51.394;5.454;2023-07-20T08:56:57;9.52;;;9.23;;
26820;SDS011;37186;51.394;5.454;2023-07-20T09:00:00;9.25;;;8.95;;
26820;SDS011;37186;51.394;5.454;2023-07-20T09:03:05;9.82;;;9.52;;
26820;SDS011;37186;51.394;5.454;2023-07-20T09:06:05;10.38;;;10.07;;
26820;SDS011;37186;51.394;5.454;2023-07-20T09:09:06;11.73;;;11.38;;
26820;SDS011;37186;51.394;5.454;2023-07-20T09:12:12;11.32;;;11.00;;
26820;SDS011;37186;51.394;5.454;2023-07-20T09:15:16;11.05;;;10.75;;
26820;SDS011;37186;51.394;5.454;2023-07-20T09:18:30;10.90;;;10.60;;
26820;SDS011;37186;51.394;5.454;2023-07-20T09:21:31;11.60;;;11.25;;
26820;SDS011;37186;51.394;5.454;2023-07-20T09:24:32;11.80;;;11.45;;
26820;SDS011;37186;51.394;5.454;2023-07-20T09:27:34;11.63;;;11.27;;
26820;SDS011;37186;51.394;5.454;2023-07-20T09:30:36;12.25;;;11.85;;
26820;SDS011;37186;51.394;5.454;2023-07-20T09:33:36;12.95;;;12.55;;
26820;SDS011;37186;51.394;5.454;2023-07-20T09:36:39;12.77;;;12.38;;
26820;SDS011;37186;51.394;5.454;2023-07-20T09:39:43;12.30;;;11.90;;
26820;SDS011;37186;51.394;5.454;2023-07-20T09:42:44;12.40;;;12.00;;
26820;SDS011;37186;51.394;5.454;2023-07-20T09:45:45;13.65;;;13.25;;
26820;SDS011;37186;51.394;5.454;2023-07-20T09:48:52;13.30;;;12.90;;
26820;SDS011;37186;51.394;5.454;2023-07-20T09:51:53;12.82;;;12.43;;
26820;SDS011;37186;51.394;5.454;2023-07-20T09:54:57;11.55;;;11.25;;
26820;SDS011;37186;51.394;5.454;2023-07-20T09:57:58;11.35;;;11.05;;
26820;SDS011;37186;51.394;5.454;2023-07-20T10:01:00;11.45;;;11.15;;
26820;SDS011;37186;51.394;5.454;2023-07-20T10:04:07;11.13;;;10.82;;
26820;SDS011;37186;51.394;5.454;2023-07-20T10:07:10;13.05;;;12.65;;
26820;SDS011;37186;51.394;5.454;2023-07-20T10:10:12;12.68;;;12.27;;
26820;SDS011;37186;51.394;5.454;2023-07-20T10:13:18;11.20;;;10.90;;
26820;SDS011;37186;51.394;5.454;2023-07-20T10:16:31;11.02;;;10.73;;
26820;SDS011;37186;51.394;5.454;2023-07-20T10:19:42;12.40;;;12.00;;
26820;SDS011;37186;51.394;5.454;2023-07-20T10:22:44;9.55;;;9.25;;
26820;SDS011;37186;51.394;5.454;2023-07-20T10:25:47;9.60;;;9.30;;
26820;SDS011;37186;51.394;5.454;2023-07-20T10:28:49;11.88;;;11.52;;
26820;SDS011;37186;51.394;5.454;2023-07-20T10:31:50;12.93;;;12.52;;
26820;SDS011;37186;51.394;5.454;2023-07-20T10:34:51;12.80;;;12.40;;
26820;SDS011;37186;51.394;5.454;2023-07-20T10:37:59;12.55;;;12.15;;
26820;SDS011;37186;51.394;5.454;2023-07-20T10:41:01;11.73;;;11.40;;
26820;SDS011;37186;51.394;5.454;2023-07-20T10:44:03;12.38;;;11.98;;
26820;SDS011;37186;51.394;5.454;2023-07-20T10:47:11;11.93;;;11.55;;
26820;SDS011;37186;51.394;5.454;2023-07-20T10:50:12;11.32;;;11.00;;
26820;SDS011;37186;51.394;5.454;2023-07-20T10:53:18;12.07;;;11.70;;
26820;SDS011;37186;51.394;5.454;2023-07-20T10:56:22;12.45;;;12.05;;
26820;SDS011;37186;51.394;5.454;2023-07-20T11:02:37;10.57;;;10.27;;
26820;SDS011;37186;51.394;5.454;2023-07-20T11:05:42;10.70;;;10.40;;
26820;SDS011;37186;51.394;5.454;2023-07-20T11:08:43;10.82;;;10.52;;
26820;SDS011;37186;51.394;5.454;2023-07-20T11:11:44;12.32;;;11.93;;
26820;SDS011;37186;51.394;5.454;2023-07-20T11:14:53;10.45;;;10.15;;
26820;SDS011;37186;51.394;5.454;2023-07-20T11:18:10;10.77;;;10.48;;
26820;SDS011;37186;51.394;5.454;2023-07-20T11:21:12;10.13;;;9.82;;
26820;SDS011;37186;51.394;5.454;2023-07-20T11:24:13;10.55;;;10.25;;
26820;SDS011;37186;51.394;5.454;2023-07-20T11:27:13;8.38;;;8.18;;
26820;SDS011;37186;51.394;5.454;2023-07-20T11:30:17;13.13;;;12.73;;
26820;SDS011;37186;51.394;5.454;2023-07-20T11:33:18;13.13;;;12.73;;
26820;SDS011;37186;51.394;5.454;2023-07-20T11:36:18;11.45;;;11.13;;
26820;SDS011;37186;51.394;5.454;2023-07-20T11:39:20;15.60;;;15.10;;
26820;SDS011;37186;51.394;5.454;2023-07-20T11:42:22;11.07;;;10.77;;
26820;SDS011;37186;51.394;5.454;2023-07-20T11:45:22;10.48;;;10.18;;
26820;SDS011;37186;51.394;5.454;2023-07-20T11:48:23;11.57;;;11.25;;
26820;SDS011;37186;51.394;5.454;2023-07-20T11:51:23;15.85;;;15.35;;
26820;SDS011;37186;51.394;5.454;2023-07-20T11:54:24;14.40;;;13.98;;
26820;SDS011;37186;51.394;5.454;2023-07-20T11:57:25;14.90;;;14.43;;
26820;SDS011;37186;51.394;5.454;2023-07-20T12:00:26;15.55;;;15.05;;
26820;SDS011;37186;51.394;5.454;2023-07-20T12:03:27;14.23;;;13.80;;
26820;SDS011;37186;51.394;5.454;2023-07-20T12:06:28;15.30;;;14.80;;
26820;SDS011;37186;51.394;5.454;2023-07-20T12:09:29;14.05;;;13.65;;
26820;SDS011;37186;51.394;5.454;2023-07-20T12:12:31;12.73;;;12.32;;
26820;SDS011;37186;51.394;5.454;2023-07-20T12:15:37;8.63;;;8.40;;
26820;SDS011;37186;51.394;5.454;2023-07-20T12:18:38;9.20;;;8.90;;
26820;SDS011;37186;51.394;5.454;2023-07-20T12:21:39;8.60;;;8.38;;
26820;SDS011;37186;51.394;5.454;2023-07-20T12:24:42;7.88;;;7.68;;
26820;SDS011;37186;51.394;5.454;2023-07-20T12:27:43;6.75;;;6.55;;
26820;SDS011;37186;51.394;5.454;2023-07-20T12:30:45;7.32;;;7.13;;
26820;SDS011;37186;51.394;5.454;2023-07-20T12:33:46;7.05;;;6.85;;
26820;SDS011;37186;51.394;5.454;2023-07-20T12:36:47;6.38;;;6.18;;
26820;SDS011;37186;51.394;5.454;2023-07-20T12:39:47;6.40;;;6.20;;
26820;SDS011;37186;51.394;5.454;2023-07-20T12:42:48;7.25;;;7.05;;
26820;SDS011;37186;51.394;5.454;2023-07-20T12:45:49;8.35;;;8.15;;
26820;SDS011;37186;51.394;5.454;2023-07-20T12:48:49;7.50;;;7.30;;
26820;SDS011;37186;51.394;5.454;2023-07-20T12:51:50;8.13;;;7.93;;
26820;SDS011;37186;51.394;5.454;2023-07-20T12:54:50;9.40;;;9.10;;
26820;SDS011;37186;51.394;5.454;2023-07-20T12:57:51;10.45;;;10.15;;
26820;SDS011;37186;51.394;5.454;2023-07-20T13:00:52;12.50;;;12.10;;
26820;SDS011;37186;51.394;5.454;2023-07-20T13:03:53;13.73;;;13.32;;
26820;SDS011;37186;51.394;5.454;2023-07-20T13:06:54;15.15;;;14.65;;
26820;SDS011;37186;51.394;5.454;2023-07-20T13:09:55;13.85;;;13.45;;
26820;SDS011;37186;51.394;5.454;2023-07-20T13:12:56;12.30;;;11.90;;
26820;SDS011;37186;51.394;5.454;2023-07-20T13:15:57;9.90;;;9.60;;
26820;SDS011;37186;51.394;5.454;2023-07-20T13:18:57;8.57;;;8.35;;
26820;SDS011;37186;51.394;5.454;2023-07-20T13:21:58;8.52;;;8.30;;
26820;SDS011;37186;51.394;5.454;2023-07-20T13:24:58;10.65;;;10.35;;
26820;SDS011;37186;51.394;5.454;2023-07-20T13:27:59;12.18;;;11.77;;
26820;SDS011;37186;51.394;5.454;2023-07-20T13:31:00;8.00;;;7.80;;
26820;SDS011;37186;51.394;5.454;2023-07-20T13:34:00;7.97;;;7.78;;
26820;SDS011;37186;51.394;5.454;2023-07-20T13:37:01;5.63;;;5.53;;
26820;SDS011;37186;51.394;5.454;2023-07-20T13:40:02;5.95;;;5.75;;
26820;SDS011;37186;51.394;5.454;2023-07-20T13:43:05;5.85;;;5.68;;
26820;SDS011;37186;51.394;5.454;2023-07-20T13:46:05;6.07;;;5.88;;
26820;SDS011;37186;51.394;5.454;2023-07-20T13:49:06;6.13;;;5.93;;
26820;SDS011;37186;51.394;5.454;2023-07-20T13:52:06;7.13;;;6.93;;
26820;SDS011;37186;51.394;5.454;2023-07-20T13:55:07;7.07;;;6.88;;
26820;SDS011;37186;51.394;5.454;2023-07-20T13:58:08;7.65;;;7.45;;
26820;SDS011;37186;51.394;5.454;2023-07-20T14:01:10;7.88;;;7.68;;
26820;SDS011;37186;51.394;5.454;2023-07-20T14:04:11;8.30;;;8.10;;
26820;SDS011;37186;51.394;5.454;2023-07-20T14:07:11;8.38;;;8.18;;
26820;SDS011;37186;51.394;5.454;2023-07-20T14:10:13;7.88;;;7.68;;
26820;SDS011;37186;51.394;5.454;2023-07-20T14:13:14;7.95;;;7.75;;
26820;SDS011;37186;51.394;5.454;2023-07-20T14:16:14;8.43;;;8.20;;
26820;SDS011;37186;51.394;5.454;2023-07-20T14:19:15;11.23;;;10.90;;
26820;SDS011;37186;51.394;5.454;2023-07-20T14:22:16;10.18;;;9.88;;
26820;SDS011;37186;51.394;5.454;2023-07-20T14:25:16;9.75;;;9.45;;
26820;SDS011;37186;51.394;5.454;2023-07-20T14:28:17;9.85;;;9.55;;
26820;SDS011;37186;51.394;5.454;2023-07-20T14:31:17;9.00;;;8.75;;
26820;SDS011;37186;51.394;5.454;2023-07-20T14:34:19;10.32;;;10.02;;
26820;SDS011;37186;51.394;5.454;2023-07-20T14:37:20;9.55;;;9.25;;
26820;SDS011;37186;51.394;5.454;2023-07-20T14:40:21;10.07;;;9.77;;
26820;SDS011;37186;51.394;5.454;2023-07-20T14:43:21;8.75;;;8.50;;
26820;SDS011;37186;51.394;5.454;2023-07-20T14:46:22;8.98;;;8.70;;
26820;SDS011;37186;51.394;5.454;2023-07-20T14:49:22;8.43;;;8.23;;
26820;SDS011;37186;51.394;5.454;2023-07-20T14:52:23;11.40;;;11.07;;
26820;SDS011;37186;51.394;5.454;2023-07-20T14:55:23;9.98;;;9.68;;
26820;SDS011;37186;51.394;5.454;2023-07-20T14:58:25;7.80;;;7.60;;
26820;SDS011;37186;51.394;5.454;2023-07-20T15:01:25;7.35;;;7.15;;
26820;SDS011;37186;51.394;5.454;2023-07-20T15:04:26;8.25;;;8.05;;
26820;SDS011;37186;51.394;5.454;2023-07-20T15:07:27;7.80;;;7.60;;
26820;SDS011;37186;51.394;5.454;2023-07-20T15:10:28;8.60;;;8.38;;
26820;SDS011;37186;51.394;5.454;2023-07-20T15:13:29;11.63;;;11.27;;
26820;SDS011;37186;51.394;5.454;2023-07-20T15:16:29;8.07;;;7.88;;
26820;SDS011;37186;51.394;5.454;2023-07-20T15:19:30;7.45;;;7.25;;
26820;SDS011;37186;51.394;5.454;2023-07-20T15:22:31;7.80;;;7.60;;
26820;SDS011;37186;51.394;5.454;2023-07-20T15:25:32;8.68;;;8.48;;
26820;SDS011;37186;51.394;5.454;2023-07-20T15:28:33;8.13;;;7.93;;
26820;SDS011;37186;51.394;5.454;2023-07-20T15:31:33;8.57;;;8.38;;
26820;SDS011;37186;51.394;5.454;2023-07-20T15:34:36;8.27;;;8.07;;
26820;SDS011;37186;51.394;5.454;2023-07-20T15:37:36;8.20;;;8.00;;
26820;SDS011;37186;51.394;5.454;2023-07-20T15:40:37;8.40;;;8.20;;
26820;SDS011;37186;51.394;5.454;2023-07-20T15:43:43;8.27;;;8.07;;
26820;SDS011;37186;51.394;5.454;2023-07-20T15:46:44;8.27;;;8.07;;
26820;SDS011;37186;51.394;5.454;2023-07-20T15:49:46;9.45;;;9.15;;
26820;SDS011;37186;51.394;5.454;2023-07-20T15:52:47;8.15;;;7.95;;
26820;SDS011;37186;51.394;5.454;2023-07-20T15:55:52;8.45;;;8.25;;
26820;SDS011;37186;51.394;5.454;2023-07-20T15:58:54;7.90;;;7.70;;
26820;SDS011;37186;51.394;5.454;2023-07-20T16:01:55;8.00;;;7.80;;
26820;SDS011;37186;51.394;5.454;2023-07-20T16:04:56;7.38;;;7.18;;
26820;SDS011;37186;51.394;5.454;2023-07-20T16:07:56;7.07;;;6.88;;
26820;SDS011;37186;51.394;5.454;2023-07-20T16:10:57;7.50;;;7.30;;
26820;SDS011;37186;51.394;5.454;2023-07-20T16:13:57;6.88;;;6.68;;
26820;SDS011;37186;51.394;5.454;2023-07-20T16:16:58;7.15;;;6.95;;
26820;SDS011;37186;51.394;5.454;2023-07-20T16:19:58;7.10;;;6.90;;
26820;SDS011;37186;51.394;5.454;2023-07-20T16:22:59;6.78;;;6.57;;
26820;SDS011;37186;51.394;5.454;2023-07-20T16:25:59;6.20;;;6.00;;
26820;SDS011;37186;51.394;5.454;2023-07-20T16:29:00;6.15;;;5.95;;
26820;SDS011;37186;51.394;5.454;2023-07-20T16:32:01;6.88;;;6.68;;
26820;SDS011;37186;51.394;5.454;2023-07-20T16:35:02;7.53;;;7.32;;
26820;SDS011;37186;51.394;5.454;2023-07-20T16:38:03;7.15;;;6.95;;
26820;SDS011;37186;51.394;5.454;2023-07-20T16:41:05;7.32;;;7.13;;
26820;SDS011;37186;51.394;5.454;2023-07-20T16:44:09;7.95;;;7.75;;
26820;SDS011;37186;51.394;5.454;2023-07-20T16:47:10;7.90;;;7.70;;
26820;SDS011;37186;51.394;5.454;2023-07-20T16:50:10;7.82;;;7.63;;
26820;SDS011;37186;51.394;5.454;2023-07-20T16:53:11;8.07;;;7.88;;
26820;SDS011;37186;51.394;5.454;2023-07-20T16:56:11;8.88;;;8.57;;
26820;SDS011;37186;51.394;5.454;2023-07-20T16:59:12;9.07;;;8.77;;
26820;SDS011;37186;51.394;5.454;2023-07-20T17:02:13;9.57;;;9.27;;
26820;SDS011;37186;51.394;5.454;2023-07-20T17:05:14;9.68;;;9.38;;
26820;SDS011;37186;51.394;5.454;2023-07-20T17:08:15;10.23;;;9.93;;
26820;SDS011;37186;51.394;5.454;2023-07-20T17:11:15;10.82;;;10.52;;
26820;SDS011;37186;51.394;5.454;2023-07-20T17:14:16;9.90;;;9.60;;
26820;SDS011;37186;51.394;5.454;2023-07-20T17:17:16;11.65;;;11.32;;
26820;SDS011;37186;51.394;5.454;2023-07-20T17:20:17;10.25;;;9.95;;
26820;SDS011;37186;51.394;5.454;2023-07-20T17:23:19;10.77;;;10.48;;
26820;SDS011;37186;51.394;5.454;2023-07-20T17:26:20;11.20;;;10.90;;
26820;SDS011;37186;51.394;5.454;2023-07-20T17:29:20;11.25;;;10.95;;
26820;SDS011;37186;51.394;5.454;2023-07-20T17:32:21;12.32;;;11.93;;
26820;SDS011;37186;51.394;5.454;2023-07-20T17:35:22;11.48;;;11.15;;
26820;SDS011;37186;51.394;5.454;2023-07-20T17:38:22;10.52;;;10.23;;
26820;SDS011;37186;51.394;5.454;2023-07-20T17:41:23;10.20;;;9.90;;
26820;SDS011;37186;51.394;5.454;2023-07-20T17:44:24;9.38;;;9.07;;
26820;SDS011;37186;51.394;5.454;2023-07-20T17:47:24;8.45;;;8.25;;
26820;SDS011;37186;51.394;5.454;2023-07-20T17:50:25;9.27;;;8.98;;
26820;SDS011;37186;51.394;5.454;2023-07-20T17:53:27;7.88;;;7.68;;
26820;SDS011;37186;51.394;5.454;2023-07-20T17:56:28;7.68;;;7.47;;
26820;SDS011;37186;51.394;5.454;2023-07-20T17:59:28;7.82;;;7.63;;
26820;SDS011;37186;51.394;5.454;2023-07-20T18:02:29;7.57;;;7.38;;
26820;SDS011;37186;51.394;5.454;2023-07-20T18:05:30;7.60;;;7.40;;
26820;SDS011;37186;51.394;5.454;2023-07-20T18:08:31;7.10;;;6.90;;
26820;SDS011;37186;51.394;5.454;2023-07-20T18:11:32;7.32;;;7.13;;
26820;SDS011;37186;51.394;5.454;2023-07-20T18:14:33;6.63;;;6.43;;